Список аэропортов
Фактическая погода:

26 апреля, 12:00
Температура: +9°C (+7.3*)
Ветер: южный 3 м/с
Давление: *747 мм
неб. облачность
180 м
разорв. обл.
кучево-дождевые 660 м
слаб. ливневый дождь
Время (МСК)Темп. СВетерВлажностьДавлениеОблачностьОсадки
09:00+10Ю, 5 м/с71%999 гПаоблачно
10:00+10Ю, 4 м/с80%998 гПаоблачнодождь
11:00+10Ю, 3 м/с83%997 гПаоблачнодождь
12:00+10ЮВ, 3 м/с84%996 гПаоблачнодождь
13:00+10Ю, 5 м/с86%996 гПаоблачнодождь
14:00+10З, 7 м/с91%996 гПаоблачносл. дождь
15:00+10З, 8 м/с88%997 гПаоблачно
16:00+11З, 7 м/с79%997 гПаоблачносл. дождь
17:00+10З, 11 м/с81%998 гПаоблачнодождь
18:00+9З, 10 м/с76%1000 гПаоблачно
19:00+8З, 10 м/с73%1000 гПаоблачносл. дождь
20:00+8З, 10 м/с67%1001 гПаоблачно
21:00+8З, 8 м/с65%1003 гПас прояснениями
22:00+8З, 6 м/с67%1003 гПас прояснениями
23:00+7З, 6 м/с72%1004 гПамалооблачно
27 апреля
00:00+7З, 6 м/с76%1005 гПаясно
01:00+6З, 5 м/с82%1006 гПаясно
02:00+6З, 5 м/с87%1007 гПаясно
03:00+5З, 4 м/с91%1007 гПаясно
04:00+4З, 3 м/с95%1007 гПаясно
05:00+3ЮЗ, 4 м/с96%1007 гПамалооблачно
06:00+4З, 3 м/с94%1008 гПаясно
07:00+5ЮЗ, 4 м/с86%1008 гПаоблачно
08:00+7З, 4 м/с76%1008 гПаясно
09:00+9ЮЗ, 4 м/с70%1009 гПас прояснениями
10:00+11ЮЗ, 4 м/с65%1009 гПаоблачно
11:00+12З, 5 м/с61%1009 гПаоблачно
12:00+12З, 5 м/с64%1009 гПаоблачнодождь
13:00+12З, 4 м/с64%1009 гПаоблачнодождь
14:00+13З, 3 м/с61%1009 гПас прояснениямисл. дождь
15:00+13З, 3 м/с60%1008 гПаоблачносл. дождь
16:00+13З, 4 м/с65%1008 гПаоблачнодождь
17:00+13З, 4 м/с58%1008 гПас прояснениями
18:00+13З, 4 м/с60%1009 гПамалооблачно
19:00+12З, 3 м/с58%1009 гПамалооблачно
20:00+10З, 3 м/с68%1009 гПас прояснениями
21:00+9З, 2 м/с80%1010 гПаясно
22:00+7З, 2 м/с91%1010 гПаясно
23:00+6З, 2 м/с96%1011 гПаясно
28 апреля
00:00+5З, 2 м/с96%1011 гПаясно
01:00+4З, 2 м/с96%1011 гПаясно
02:00+3З, 2 м/с97%1011 гПамалооблачно
03:00+3З, 2 м/с98%1011 гПамалооблачно
04:00+2З, 3 м/с96%1011 гПаясно
05:00+3СЗ, 4 м/с95%1012 гПаясно
06:00+3СЗ, 4 м/с97%1012 гПамалооблачно
07:00+4СЗ, 5 м/с91%1013 гПаясно
08:00+7СЗ, 5 м/с80%1013 гПаясно
09:00+9СЗ, 5 м/с70%1013 гПамалооблачно